Portada
METAR-TAF:

METAR-TAF

Aeropuertos :

Base aérea

Tafraoui, Argelia

latitud: 35-32-33N, longitud: 000-31-56W, altitud: 112 m

Observación

El informe se hizo hace 25 minutos, a las 05:00 UTC
Viento 4 kt del este
Temperatura 10°C
Humedad 100%
Presión 1013 hPa
Visibilidad: 2500 m
Nubes dispersas a una altura de 1300 ft
neblina

METAR: DAOL 210500Z 09004KT 2500 BR SCT013 10/10 Q1013

Hora: 06:25 (05:25 UTC)


TAF: falta

Observaciones y pronósticos meteorológicos de más de 4000 aeropuertos (mensajes METAR y TAF).

Los puntos amarillos y rojos representan las estaciones disponibles.

Ponga el ratón en el punto deseado para ver el nombre de la estación.

Haga clic para ver las observaciones y los pronósticos meteorológicos.

Para cambiar el mapa : haga clic en los botones verdes con una cruz de color negro para hacer un zoom, en el botón verde con un guión para alejar o en las flechas verdes para mapas adyacentes.


METAR-TAF: